DAUU/OGX METAR and TAF weather

Enter ICAO airport designator
Station Type Date Time Source
DAUU METAR 2020/10/20 17:00 UTC NOAA

DAUU 201700Z 10008KT CAVOK 26/05 Q1019


Station Type Date Time Source
DAUU Decoded METAR 2020/10/20 17:00 UTC NOAA

Ouargla, Algeria (DAUU) 31-55N 005-24E 141M
Oct 20, 2020 - 01:00 PM EDT / 2020.10.20 1700 UTC
Wind: from the E (100 degrees) at 9 MPH (8 KT):0
Visibility: greater than 7 mile(s):0
Temperature: 78 F (26 C)
Dew Point: 41 F (5 C)
Relative Humidity: 25%
Pressure (altimeter): 30.09 in. Hg (1019 hPa)
ob: DAUU 201700Z 10008KT CAVOK 26/05 Q1019
cycle: 17

Station Type Date Time Source
DAUU TAF 2017/11/09 18:03 UTC NOAA

TAF DAUU 091700Z 0918/1009 34012KT 9999 FEW040 SCT100 PROB40
TEMPO 0918/0924 34015G25KT 5000 -TSRA FEW036CB

Example: see airport list